createdAt,value
2018-02-18T00:01:02.987Z,92.23
2018-02-18T00:03:29.371Z,93.67
2018-02-18T00:05:55.726Z,91.71
2018-02-18T00:08:22.197Z,92.17
2018-02-18T00:10:48.569Z,92.36
2018-02-18T00:13:14.976Z,91.85
2018-02-18T00:15:42.437Z,92.48
2018-02-18T00:18:08.774Z,92.69
2018-02-18T00:20:35.103Z,93.25
2018-02-18T00:23:01.410Z,93.17
2018-02-18T00:25:27.911Z,94.01
2018-02-18T00:27:54.263Z,93.89
2018-02-18T00:30:20.594Z,93.53
2018-02-18T00:32:46.944Z,93.34
2018-02-18T00:35:13.396Z,92.52
2018-02-18T00:37:39.747Z,93.44
2018-02-18T00:40:06.267Z,93.19
2018-02-18T00:42:32.714Z,92.05
2018-02-18T00:44:59.052Z,92.26
2018-02-18T00:47:25.402Z,92.97
2018-02-18T00:49:52.050Z,90.68
2018-02-18T00:52:18.420Z,91.06
2018-02-18T00:54:44.770Z,91.10
2018-02-18T00:57:11.186Z,91.55
2018-02-18T00:59:37.516Z,91.11
2018-02-18T01:02:03.904Z,91.02
2018-02-18T01:04:30.344Z,90.91
2018-02-18T01:06:56.646Z,91.21
2018-02-18T01:09:22.968Z,91.25
2018-02-18T01:11:49.331Z,91.17
2018-02-18T01:14:17.700Z,91.38
2018-02-18T01:16:44.002Z,91.54
2018-02-18T01:19:10.357Z,91.40
2018-02-18T01:21:36.751Z,92.15
2018-02-18T01:24:03.143Z,91.02
2018-02-18T01:26:29.474Z,91.39
2018-02-18T01:28:55.809Z,91.49
2018-02-18T01:31:22.105Z,91.31
2018-02-18T01:33:48.465Z,91.50
2018-02-18T01:36:14.877Z,91.08
2018-02-18T01:38:41.241Z,90.67
2018-02-18T01:41:07.646Z,91.65
2018-02-18T01:43:33.967Z,91.19
2018-02-18T01:46:00.332Z,90.69
2018-02-18T01:48:26.722Z,91.11
2018-02-18T01:50:53.068Z,91.63
2018-02-18T01:53:19.425Z,91.38
2018-02-18T01:55:45.953Z,92.31
2018-02-18T01:58:12.268Z,92.53
2018-02-18T02:00:38.668Z,91.99
2018-02-18T02:03:05.041Z,92.92
2018-02-18T02:05:31.575Z,92.51
2018-02-18T02:07:57.964Z,92.54
2018-02-18T02:10:24.303Z,92.29
2018-02-18T02:12:51.283Z,92.34
2018-02-18T02:15:17.608Z,92.87
2018-02-18T02:17:43.953Z,93.33
2018-02-18T02:20:10.281Z,92.50
2018-02-18T02:22:36.633Z,92.63
2018-02-18T02:25:03.090Z,91.81
2018-02-18T02:27:29.411Z,91.60
2018-02-18T02:29:55.792Z,92.07
2018-02-18T02:32:22.110Z,92.37
2018-02-18T02:34:48.467Z,91.76
2018-02-18T02:37:14.833Z,92.08
2018-02-18T02:39:41.258Z,92.09
2018-02-18T02:42:07.585Z,92.27
2018-02-18T02:44:34.023Z,90.30
2018-02-18T02:47:00.383Z,91.18
2018-02-18T02:49:26.734Z,91.72
2018-02-18T02:51:53.062Z,91.70
2018-02-18T02:54:19.607Z,91.66
2018-02-18T02:56:46.009Z,92.59
2018-02-18T02:59:12.391Z,92.77
2018-02-18T03:01:38.813Z,92.89
2018-02-18T03:04:05.281Z,92.87
2018-02-18T03:06:31.710Z,92.14
2018-02-18T03:08:58.119Z,91.83
2018-02-18T03:11:24.628Z,92.47
2018-02-18T03:13:50.980Z,92.05
2018-02-18T03:16:17.453Z,92.33
2018-02-18T03:18:43.808Z,92.09
2018-02-18T03:21:10.151Z,91.21
2018-02-18T03:23:36.617Z,90.15
2018-02-18T03:26:03.089Z,91.26
2018-02-18T03:28:29.568Z,91.53
2018-02-18T03:30:56.046Z,91.12
2018-02-18T03:33:22.476Z,91.74
2018-02-18T03:35:48.908Z,91.54
2018-02-18T03:38:15.258Z,92.34
2018-02-18T03:40:41.599Z,92.04
2018-02-18T03:43:07.919Z,92.69
2018-02-18T03:45:34.351Z,92.50
2018-02-18T03:48:00.705Z,92.87
2018-02-18T03:50:27.068Z,92.67
2018-02-18T03:52:53.414Z,93.06
2018-02-18T03:55:19.857Z,92.46
2018-02-18T03:57:46.196Z,91.92
2018-02-18T04:00:12.617Z,91.56
2018-02-18T04:02:38.943Z,92.83
2018-02-18T04:05:05.386Z,92.61
2018-02-18T04:07:31.787Z,92.37
2018-02-18T04:09:58.173Z,91.82
2018-02-18T04:12:24.525Z,91.29
2018-02-18T04:14:50.958Z,90.81
2018-02-18T04:17:17.281Z,90.95
2018-02-18T04:19:43.652Z,91.63
2018-02-18T04:22:10.091Z,92.50
2018-02-18T04:24:36.464Z,92.81
2018-02-18T04:27:02.784Z,92.94
2018-02-18T04:29:29.145Z,93.21
2018-02-18T04:31:55.519Z,93.09
2018-02-18T04:34:21.877Z,92.16
2018-02-18T04:36:48.758Z,92.41
2018-02-18T04:39:15.081Z,92.18
2018-02-18T04:41:41.414Z,92.01
2018-02-18T04:44:07.849Z,91.03
2018-02-18T04:46:34.151Z,91.93
2018-02-18T04:49:00.473Z,92.38
2018-02-18T04:51:26.876Z,91.71
2018-02-18T04:53:53.199Z,91.95
2018-02-18T04:56:20.585Z,92.57
2018-02-18T04:58:47.151Z,92.29
2018-02-18T05:01:13.549Z,92.25
2018-02-18T05:03:39.906Z,91.54
2018-02-18T05:06:06.369Z,91.68
2018-02-18T05:08:32.683Z,92.21
2018-02-18T05:10:59.012Z,92.59
2018-02-18T05:13:25.430Z,93.06
2018-02-18T05:15:51.764Z,92.88
2018-02-18T05:18:18.082Z,92.18
2018-02-18T05:20:44.543Z,92.47
2018-02-18T05:23:10.885Z,91.97
2018-02-18T05:25:37.351Z,92.41
2018-02-18T05:28:03.793Z,92.93
2018-02-18T05:30:31.315Z,92.80
2018-02-18T05:32:57.682Z,92.56
2018-02-18T05:35:24.120Z,92.44
2018-02-18T05:37:50.714Z,92.41
2018-02-18T05:40:17.100Z,91.99
2018-02-18T05:42:43.508Z,91.55
2018-02-18T05:45:09.990Z,91.40
2018-02-18T05:47:36.444Z,91.85
2018-02-18T05:50:02.947Z,92.33
2018-02-18T05:52:29.607Z,91.58
2018-02-18T05:54:56.064Z,91.33
2018-02-18T05:57:22.635Z,92.27
2018-02-18T05:59:49.271Z,92.13
2018-02-18T06:02:15.888Z,92.23
2018-02-18T06:04:42.489Z,91.60
2018-02-18T06:07:09.301Z,91.37
2018-02-18T06:09:35.973Z,91.13
2018-02-18T06:12:03.531Z,90.39
2018-02-18T06:14:31.772Z,89.74
2018-02-18T06:16:58.448Z,90.06
2018-02-18T06:19:25.155Z,91.02
2018-02-18T06:21:51.748Z,90.99
2018-02-18T06:24:18.477Z,91.54
2018-02-18T06:26:45.783Z,90.38
2018-02-18T06:29:12.439Z,89.30
2018-02-18T06:31:38.980Z,89.82
2018-02-18T06:34:05.560Z,89.55
2018-02-18T06:36:31.937Z,90.02
2018-02-18T06:38:58.359Z,90.36
2018-02-18T06:41:24.782Z,90.87
2018-02-18T06:43:51.299Z,89.81
2018-02-18T06:46:17.820Z,89.66
2018-02-18T06:48:44.398Z,89.43
2018-02-18T06:51:10.833Z,89.63
2018-02-18T06:53:37.349Z,88.01
2018-02-18T06:56:04.008Z,88.29
2018-02-18T06:58:31.703Z,87.71
2018-02-18T07:01:00.569Z,89.00
2018-02-18T07:03:27.850Z,88.01
2018-02-18T07:05:54.648Z,87.88
2018-02-18T07:08:21.427Z,87.82
2018-02-18T07:10:48.291Z,88.46
2018-02-18T07:13:15.154Z,88.50
2018-02-18T07:15:45.249Z,88.18
2018-02-18T07:18:11.734Z,89.30
2018-02-18T07:20:38.205Z,87.58
2018-02-18T07:23:04.916Z,87.07
2018-02-18T07:25:31.610Z,87.10
2018-02-18T07:27:58.209Z,87.29
2018-02-18T07:30:24.931Z,87.83
2018-02-18T07:32:51.584Z,87.29
2018-02-18T07:35:19.555Z,86.80
2018-02-18T07:37:46.231Z,87.64
2018-02-18T07:40:12.884Z,85.45
2018-02-18T07:42:39.388Z,84.54
2018-02-18T07:45:06.000Z,85.44
2018-02-18T07:47:32.455Z,84.07
2018-02-18T07:49:58.879Z,85.33
2018-02-18T07:52:25.577Z,86.43
2018-02-18T07:54:52.347Z,84.56
2018-02-18T07:57:18.751Z,84.59
2018-02-18T07:59:45.156Z,85.77
2018-02-18T08:02:11.638Z,85.16
2018-02-18T08:04:38.170Z,84.75
2018-02-18T08:07:04.987Z,82.87
2018-02-18T08:09:31.534Z,83.42
2018-02-18T08:11:58.031Z,84.52
2018-02-18T08:14:25.774Z,84.61
2018-02-18T08:16:52.411Z,83.00
2018-02-18T08:19:18.788Z,83.17
2018-02-18T08:21:45.191Z,81.94
2018-02-18T08:24:13.784Z,81.03
2018-02-18T08:26:40.227Z,81.45
2018-02-18T08:29:06.720Z,82.08
2018-02-18T08:31:33.316Z,79.74
2018-02-18T08:33:59.764Z,80.68
2018-02-18T08:36:26.340Z,80.20
2018-02-18T08:38:52.832Z,78.90
2018-02-18T08:41:19.383Z,81.97
2018-02-18T08:43:45.786Z,78.22
2018-02-18T08:46:12.580Z,78.65
2018-02-18T08:48:39.004Z,76.41
2018-02-18T08:51:05.463Z,77.51
2018-02-18T08:53:32.150Z,78.24
2018-02-18T08:55:58.837Z,77.94
2018-02-18T08:58:25.350Z,76.67
2018-02-18T09:00:51.880Z,77.65
2018-02-18T09:03:18.372Z,75.54
2018-02-18T09:05:46.256Z,76.39
2018-02-18T09:08:12.802Z,76.71
2018-02-18T09:10:39.364Z,74.98
2018-02-18T09:13:06.026Z,77.24
2018-02-18T09:15:32.652Z,74.66
2018-02-18T09:17:59.071Z,74.41
2018-02-18T09:20:25.640Z,74.03
2018-02-18T09:22:53.709Z,75.36
2018-02-18T09:25:20.558Z,73.79
2018-02-18T09:27:47.367Z,73.78
2018-02-18T09:30:14.138Z,72.69
2018-02-18T09:32:41.655Z,71.09
2018-02-18T09:35:09.476Z,73.98
2018-02-18T09:37:37.224Z,73.15
2018-02-18T09:40:05.021Z,71.65
2018-02-18T09:42:32.124Z,73.63
2018-02-18T09:44:59.673Z,72.59
2018-02-18T09:47:26.800Z,69.64
2018-02-18T09:49:54.228Z,68.33
2018-02-18T09:52:21.450Z,68.49
2018-02-18T09:54:49.024Z,66.39
2018-02-18T09:57:16.319Z,66.94
2018-02-18T09:59:43.431Z,67.42
2018-02-18T10:02:10.399Z,68.31
2018-02-18T10:04:37.506Z,68.29
2018-02-18T10:07:04.486Z,67.53
2018-02-18T10:09:32.293Z,64.81
2018-02-18T10:11:59.153Z,66.76
2018-02-18T10:14:26.040Z,67.09
2018-02-18T10:16:52.652Z,63.22
2018-02-18T10:19:19.133Z,65.10
2018-02-18T10:21:45.635Z,66.27
2018-02-18T10:24:12.092Z,62.86
2018-02-18T10:26:38.546Z,62.83
2018-02-18T10:29:06.040Z,64.86
2018-02-18T10:31:33.812Z,63.95
2018-02-18T10:34:00.502Z,63.77
2018-02-18T10:36:28.489Z,63.16
2018-02-18T10:38:54.997Z,61.12
2018-02-18T10:41:21.604Z,63.74
2018-02-18T10:43:48.009Z,60.72
2018-02-18T10:46:14.646Z,64.50
2018-02-18T10:48:41.218Z,61.84
2018-02-18T10:51:07.806Z,61.76
2018-02-18T10:53:34.295Z,65.65
2018-02-18T10:56:01.105Z,63.44
2018-02-18T10:58:28.164Z,66.61
2018-02-18T11:00:54.815Z,66.75
2018-02-18T11:03:21.260Z,63.09
2018-02-18T11:05:48.820Z,62.04
2018-02-18T11:08:15.956Z,65.49
2018-02-18T11:10:42.523Z,63.66
2018-02-18T11:13:09.083Z,64.19
2018-02-18T11:15:39.607Z,62.83
2018-02-18T11:18:06.403Z,64.98
2018-02-18T11:20:33.242Z,64.00
2018-02-18T11:22:59.900Z,65.29
2018-02-18T11:25:27.507Z,63.13
2018-02-18T11:27:54.267Z,63.23
2018-02-18T11:30:21.111Z,64.11
2018-02-18T11:32:47.892Z,62.20
2018-02-18T11:35:14.470Z,60.74
2018-02-18T11:37:41.406Z,62.53
2018-02-18T11:40:07.852Z,61.03
2018-02-18T11:42:34.460Z,61.61
2018-02-18T11:45:01.145Z,63.42
2018-02-18T11:47:27.674Z,62.30
2018-02-18T11:49:54.321Z,63.18
2018-02-18T11:52:21.089Z,62.22
2018-02-18T11:54:47.797Z,62.29
2018-02-18T11:57:14.311Z,62.80
2018-02-18T11:59:40.804Z,62.53
2018-02-18T12:02:07.507Z,62.47
2018-02-18T12:04:34.248Z,62.95
2018-02-18T12:07:00.705Z,62.05
2018-02-18T12:09:27.347Z,65.38
2018-02-18T12:11:53.879Z,61.92
2018-02-18T12:14:20.355Z,61.07
2018-02-18T12:16:46.977Z,63.27
2018-02-18T12:19:13.525Z,64.53
2018-02-18T12:21:40.089Z,62.02
2018-02-18T12:24:06.838Z,64.15
2018-02-18T12:26:33.529Z,60.86
2018-02-18T12:29:00.353Z,62.23
2018-02-18T12:31:27.070Z,62.58
2018-02-18T12:33:53.842Z,61.10
2018-02-18T12:36:20.500Z,61.95
2018-02-18T12:38:47.108Z,61.90
2018-02-18T12:41:13.986Z,62.01
2018-02-18T12:43:41.113Z,61.96
2018-02-18T12:46:07.996Z,63.66
2018-02-18T12:48:35.001Z,62.53
2018-02-18T12:51:01.588Z,64.47
2018-02-18T12:53:28.177Z,62.36
2018-02-18T12:55:55.057Z,62.70
2018-02-18T12:58:21.580Z,62.22
2018-02-18T13:00:48.564Z,61.96
2018-02-18T13:03:15.540Z,63.63
2018-02-18T13:05:42.313Z,62.37
2018-02-18T13:08:08.921Z,61.00
2018-02-18T13:10:35.632Z,60.83
2018-02-18T13:13:02.222Z,62.31
2018-02-18T13:15:29.962Z,60.66
2018-02-18T13:17:56.713Z,61.52
2018-02-18T13:20:23.426Z,61.19
2018-02-18T13:22:50.055Z,60.95
2018-02-18T13:25:21.633Z,61.76
2018-02-18T13:27:49.526Z,61.99
2018-02-18T13:30:16.388Z,60.80
2018-02-18T13:32:43.373Z,58.44
2018-02-18T13:35:10.907Z,59.46
2018-02-18T13:37:41.329Z,60.58
2018-02-18T13:40:08.096Z,59.33
2018-02-18T13:42:34.799Z,60.13
2018-02-18T13:45:01.684Z,60.16
2018-02-18T13:47:28.479Z,58.53
2018-02-18T13:49:55.400Z,60.18
2018-02-18T13:52:22.163Z,60.63
2018-02-18T13:54:48.994Z,58.45
2018-02-18T13:57:17.531Z,57.97
2018-02-18T13:59:44.312Z,57.70
2018-02-18T14:02:10.826Z,59.21
2018-02-18T14:04:37.651Z,59.71
2018-02-18T14:07:04.303Z,59.31
2018-02-18T14:09:30.956Z,61.23
2018-02-18T14:11:57.557Z,60.88
2018-02-18T14:14:24.027Z,59.21
2018-02-18T14:16:50.582Z,59.04
2018-02-18T14:19:17.026Z,60.26
2018-02-18T14:21:43.825Z,60.04
2018-02-18T14:24:10.669Z,61.57
2018-02-18T14:26:37.383Z,59.76
2018-02-18T14:29:04.368Z,61.61
2018-02-18T14:31:30.929Z,61.27
2018-02-18T14:33:57.591Z,61.13
2018-02-18T14:36:24.100Z,61.50
2018-02-18T14:38:51.026Z,62.11
2018-02-18T14:41:30.003Z,61.37
2018-02-18T14:44:09.466Z,61.11
2018-02-18T14:46:48.275Z,60.74
2018-02-18T14:49:26.971Z,59.45
2018-02-18T14:52:05.624Z,61.01
2018-02-18T14:54:44.305Z,61.56
2018-02-18T14:57:23.476Z,60.93
2018-02-18T14:59:50.321Z,60.93
2018-02-18T15:02:17.171Z,63.00
2018-02-18T15:04:43.933Z,62.97
2018-02-18T15:07:11.299Z,60.39
2018-02-18T15:09:38.810Z,63.71
2018-02-18T15:12:07.332Z,64.26
2018-02-18T15:14:36.715Z,63.41
2018-02-18T15:17:04.429Z,64.70
2018-02-18T15:19:32.369Z,63.44
2018-02-18T15:22:03.138Z,65.08
2018-02-18T15:24:35.285Z,62.34
2018-02-18T15:27:02.113Z,60.96
2018-02-18T15:29:28.819Z,59.43
2018-02-18T15:31:55.284Z,59.82
2018-02-18T15:34:21.835Z,60.80
2018-02-18T15:36:49.087Z,61.25
2018-02-18T15:39:15.868Z,61.74
2018-02-18T15:41:42.410Z,63.61
2018-02-18T15:44:08.925Z,64.00
2018-02-18T15:46:35.508Z,64.33
2018-02-18T15:49:01.936Z,64.85
2018-02-18T15:51:28.533Z,66.30
2018-02-18T15:53:55.098Z,64.22
2018-02-18T15:56:23.092Z,64.75
2018-02-18T15:58:49.881Z,64.66
2018-02-18T16:01:16.832Z,66.36
2018-02-18T16:03:44.564Z,66.19
2018-02-18T16:06:13.699Z,66.74
2018-02-18T16:08:41.310Z,64.10
2018-02-18T16:11:08.501Z,65.77
2018-02-18T16:13:37.605Z,66.58
2018-02-18T16:16:06.960Z,65.58
2018-02-18T16:18:36.287Z,67.12
2018-02-18T16:21:04.006Z,67.05
2018-02-18T16:23:32.024Z,68.34
2018-02-18T16:26:02.701Z,69.65
2018-02-18T16:28:29.378Z,70.07
2018-02-18T16:30:56.138Z,70.93
2018-02-18T16:33:22.966Z,70.29
2018-02-18T16:35:52.018Z,69.39
2018-02-18T16:38:19.920Z,70.47
2018-02-18T16:40:46.705Z,70.70
2018-02-18T16:43:13.240Z,70.99
2018-02-18T16:45:45.470Z,70.83
2018-02-18T16:48:12.173Z,71.86
2018-02-18T16:50:39.271Z,70.49
2018-02-18T16:53:06.063Z,71.04
2018-02-18T16:55:32.641Z,72.34
2018-02-18T16:57:59.024Z,72.97
2018-02-18T17:00:25.424Z,71.58
2018-02-18T17:02:51.926Z,71.04
2018-02-18T17:05:18.881Z,72.07
2018-02-18T17:07:45.518Z,72.26
2018-02-18T17:10:12.059Z,72.17
2018-02-18T17:12:39.054Z,71.79
2018-02-18T17:15:09.673Z,71.29
2018-02-18T17:17:36.215Z,72.39
2018-02-18T17:20:03.521Z,72.78
2018-02-18T17:22:30.054Z,72.80
2018-02-18T17:25:03.244Z,72.11
2018-02-18T17:27:30.365Z,72.71
2018-02-18T17:29:56.929Z,72.61
2018-02-18T17:32:24.521Z,72.80
2018-02-18T17:34:53.313Z,73.14
2018-02-18T17:37:20.704Z,73.87
2018-02-18T17:39:47.592Z,74.32
2018-02-18T17:42:14.335Z,75.05
2018-02-18T17:44:40.908Z,75.98
2018-02-18T17:47:07.971Z,76.37
2018-02-18T17:49:35.043Z,76.26
2018-02-18T17:52:01.868Z,76.83
2018-02-18T17:54:28.638Z,77.46
2018-02-18T17:56:55.338Z,77.77
2018-02-18T17:59:21.972Z,77.46
2018-02-18T18:01:48.447Z,78.01
2018-02-18T18:04:15.206Z,78.55
2018-02-18T18:06:42.719Z,78.25
2018-02-18T18:09:09.512Z,78.82
2018-02-18T18:11:36.262Z,78.52
2018-02-18T18:14:02.871Z,79.07
2018-02-18T18:16:30.596Z,79.96
2018-02-18T18:18:57.470Z,80.05
2018-02-18T18:21:24.456Z,79.42
2018-02-18T18:23:51.033Z,79.52
2018-02-18T18:26:18.578Z,80.05
2018-02-18T18:28:45.010Z,79.81
2018-02-18T18:31:11.805Z,79.56
2018-02-18T18:33:38.371Z,80.11
2018-02-18T18:36:04.999Z,79.76
2018-02-18T18:38:31.759Z,80.24
2018-02-18T18:40:58.195Z,80.19
2018-02-18T18:43:24.726Z,80.45
2018-02-18T18:45:51.832Z,80.40
2018-02-18T18:48:18.932Z,80.26
2018-02-18T18:50:45.514Z,80.51
2018-02-18T18:53:12.739Z,80.59
2018-02-18T18:55:40.103Z,80.35
2018-02-18T18:58:06.743Z,80.00
2018-02-18T19:00:33.298Z,80.60
2018-02-18T19:03:00.020Z,80.65
2018-02-18T19:05:26.632Z,80.43
2018-02-18T19:07:53.125Z,80.79
2018-02-18T19:10:19.555Z,80.54
2018-02-18T19:12:46.062Z,80.46
2018-02-18T19:15:14.566Z,80.62
2018-02-18T19:17:41.846Z,80.92
2018-02-18T19:20:08.508Z,81.27
2018-02-18T19:22:35.056Z,82.06
2018-02-18T19:25:01.515Z,81.93
2018-02-18T19:27:27.963Z,82.53
2018-02-18T19:29:54.402Z,82.09
2018-02-18T19:32:21.133Z,82.21
2018-02-18T19:34:47.880Z,82.85
2018-02-18T19:37:14.237Z,82.97
2018-02-18T19:39:40.764Z,82.74
2018-02-18T19:42:07.159Z,82.92
2018-02-18T19:44:33.809Z,82.87
2018-02-18T19:47:00.493Z,83.34
2018-02-18T19:49:26.884Z,83.19
2018-02-18T19:51:53.264Z,83.05
2018-02-18T19:54:20.085Z,83.36
2018-02-18T19:56:46.772Z,83.90
2018-02-18T19:59:13.237Z,83.57
2018-02-18T20:01:39.807Z,83.32
2018-02-18T20:04:06.264Z,84.18
2018-02-18T20:06:36.654Z,83.99
2018-02-18T20:09:03.359Z,83.90
2018-02-18T20:11:29.780Z,83.95
2018-02-18T20:13:56.374Z,84.30
2018-02-18T20:16:23.100Z,84.89
2018-02-18T20:18:49.665Z,84.54
2018-02-18T20:21:16.632Z,84.75
2018-02-18T20:23:43.095Z,85.75
2018-02-18T20:26:09.552Z,85.76
2018-02-18T20:28:35.980Z,85.96
2018-02-18T20:31:02.469Z,85.73
2018-02-18T20:33:28.878Z,86.21
2018-02-18T20:35:57.382Z,86.64
2018-02-18T20:38:24.466Z,87.17
2018-02-18T20:40:51.013Z,87.28
2018-02-18T20:43:17.547Z,86.90
2018-02-18T20:45:54.007Z,87.62
2018-02-18T20:48:20.466Z,88.21
2018-02-18T20:50:46.842Z,88.11
2018-02-18T20:53:13.893Z,88.19
2018-02-18T20:55:46.224Z,88.55
2018-02-18T20:58:12.657Z,88.18
2018-02-18T21:00:39.115Z,88.83
2018-02-18T21:03:05.631Z,89.28
2018-02-18T21:05:32.218Z,89.89
2018-02-18T21:07:58.957Z,89.64
2018-02-18T21:10:25.390Z,89.64
2018-02-18T21:12:51.807Z,89.12
2018-02-18T21:15:18.572Z,90.38
2018-02-18T21:17:45.442Z,89.76
2018-02-18T21:20:12.235Z,90.37
2018-02-18T21:22:40.030Z,90.52
2018-02-18T21:25:07.530Z,90.74
2018-02-18T21:27:34.641Z,90.72
2018-02-18T21:30:01.556Z,90.71
2018-02-18T21:32:29.149Z,91.23
2018-02-18T21:34:56.277Z,91.20
2018-02-18T21:37:23.290Z,90.95
2018-02-18T21:39:50.530Z,90.75
2018-02-18T21:42:17.224Z,91.03
2018-02-18T21:44:44.664Z,90.91
2018-02-18T21:47:11.174Z,91.93
2018-02-18T21:49:37.761Z,91.64
2018-02-18T21:52:04.408Z,91.29
2018-02-18T21:54:31.126Z,91.92
2018-02-18T21:56:57.729Z,91.69
2018-02-18T21:59:24.288Z,91.95
2018-02-18T22:01:50.960Z,91.95
2018-02-18T22:04:17.388Z,91.75
2018-02-18T22:06:43.974Z,92.05
2018-02-18T22:09:10.465Z,91.73
2018-02-18T22:11:36.863Z,92.17
2018-02-18T22:14:03.333Z,91.95
2018-02-18T22:16:37.515Z,92.45
2018-02-18T22:19:03.940Z,92.37
2018-02-18T22:21:30.793Z,92.30
2018-02-18T22:23:57.149Z,92.63
2018-02-18T22:26:33.306Z,92.67
2018-02-18T22:28:59.673Z,92.34
2018-02-18T22:31:26.214Z,92.57
2018-02-18T22:33:52.707Z,92.47
2018-02-18T22:36:19.240Z,92.64
2018-02-18T22:38:45.652Z,92.32
2018-02-18T22:41:12.087Z,92.65
2018-02-18T22:43:38.537Z,92.40
2018-02-18T22:46:04.902Z,92.48
2018-02-18T22:48:31.518Z,93.06
2018-02-18T22:50:58.045Z,93.06
2018-02-18T22:53:24.509Z,93.14
2018-02-18T22:55:54.370Z,92.86
2018-02-18T22:58:20.815Z,92.67
2018-02-18T23:00:47.361Z,93.37
2018-02-18T23:03:13.838Z,93.47
2018-02-18T23:05:46.438Z,92.96
2018-02-18T23:08:12.842Z,93.18
2018-02-18T23:10:39.273Z,93.79
2018-02-18T23:13:05.640Z,93.26
2018-02-18T23:15:32.204Z,93.51
2018-02-18T23:17:58.532Z,93.54
2018-02-18T23:20:25.036Z,93.80
2018-02-18T23:22:51.500Z,93.00
2018-02-18T23:25:17.896Z,93.21
2018-02-18T23:27:44.875Z,93.47
2018-02-18T23:30:11.274Z,93.44
2018-02-18T23:32:37.700Z,93.75
2018-02-18T23:35:05.150Z,93.76
2018-02-18T23:37:31.586Z,93.62
2018-02-18T23:39:57.986Z,93.29
2018-02-18T23:42:24.328Z,93.61
2018-02-18T23:44:50.698Z,93.38
2018-02-18T23:47:17.010Z,93.91
2018-02-18T23:49:43.324Z,94.11
2018-02-18T23:52:09.696Z,93.83
2018-02-18T23:54:36.027Z,93.81
2018-02-18T23:57:02.507Z,93.57
2018-02-18T23:59:28.876Z,94.28
